sensor_id;sensor_type;location;lat;lon;timestamp;temperature;humidity
29341;DHT22;16337;59.536;13.468;2023-03-19T00:02:18;3.10;99.90
29341;DHT22;16337;59.536;13.468;2023-03-19T00:04:45;3.10;99.90
29341;DHT22;16337;59.536;13.468;2023-03-19T00:07:11;3.10;99.90
29341;DHT22;16337;59.536;13.468;2023-03-19T00:09:37;3.00;99.90
29341;DHT22;16337;59.536;13.468;2023-03-19T00:12:03;3.10;99.90
29341;DHT22;16337;59.536;13.468;2023-03-19T00:14:29;3.10;99.90
29341;DHT22;16337;59.536;13.468;2023-03-19T00:16:55;3.10;99.90
29341;DHT22;16337;59.536;13.468;2023-03-19T00:19:21;3.00;99.90
29341;DHT22;16337;59.536;13.468;2023-03-19T00:21:46;3.00;99.90
29341;DHT22;16337;59.536;13.468;2023-03-19T00:24:12;3.00;99.90
29341;DHT22;16337;59.536;13.468;2023-03-19T00:26:38;2.90;99.90
29341;DHT22;16337;59.536;13.468;2023-03-19T00:29:05;2.90;99.90
29341;DHT22;16337;59.536;13.468;2023-03-19T00:31:31;2.90;99.90
29341;DHT22;16337;59.536;13.468;2023-03-19T00:33:58;2.90;99.90
29341;DHT22;16337;59.536;13.468;2023-03-19T00:36:25;2.80;99.90
29341;DHT22;16337;59.536;13.468;2023-03-19T00:38:52;2.80;99.90
29341;DHT22;16337;59.536;13.468;2023-03-19T00:41:19;2.80;99.90
29341;DHT22;16337;59.536;13.468;2023-03-19T00:43:45;2.80;99.90
29341;DHT22;16337;59.536;13.468;2023-03-19T00:46:11;2.80;99.90
29341;DHT22;16337;59.536;13.468;2023-03-19T00:48:37;2.80;99.90
29341;DHT22;16337;59.536;13.468;2023-03-19T00:51:06;2.80;99.90
29341;DHT22;16337;59.536;13.468;2023-03-19T00:53:39;2.80;99.90
29341;DHT22;16337;59.536;13.468;2023-03-19T00:56:05;2.70;99.90
29341;DHT22;16337;59.536;13.468;2023-03-19T00:58:32;2.70;99.90
29341;DHT22;16337;59.536;13.468;2023-03-19T01:00:58;2.70;99.90
29341;DHT22;16337;59.536;13.468;2023-03-19T01:03:24;2.60;99.90
29341;DHT22;16337;59.536;13.468;2023-03-19T01:05:50;2.60;99.90
29341;DHT22;16337;59.536;13.468;2023-03-19T01:08:16;2.60;99.90
29341;DHT22;16337;59.536;13.468;2023-03-19T01:10:43;2.60;99.90
29341;DHT22;16337;59.536;13.468;2023-03-19T01:13:09;2.60;99.90
29341;DHT22;16337;59.536;13.468;2023-03-19T01:15:40;2.60;99.90
29341;DHT22;16337;59.536;13.468;2023-03-19T01:18:06;2.50;99.90
29341;DHT22;16337;59.536;13.468;2023-03-19T01:20:33;2.50;99.90
29341;DHT22;16337;59.536;13.468;2023-03-19T01:23:00;2.50;99.90
29341;DHT22;16337;59.536;13.468;2023-03-19T01:25:26;2.50;99.90
29341;DHT22;16337;59.536;13.468;2023-03-19T01:27:52;2.50;99.90
29341;DHT22;16337;59.536;13.468;2023-03-19T01:30:18;2.40;99.90
29341;DHT22;16337;59.536;13.468;2023-03-19T01:32:44;2.40;99.90
29341;DHT22;16337;59.536;13.468;2023-03-19T01:35:10;2.40;99.90
29341;DHT22;16337;59.536;13.468;2023-03-19T01:37:36;2.30;99.90
29341;DHT22;16337;59.536;13.468;2023-03-19T01:40:06;2.40;99.90
29341;DHT22;16337;59.536;13.468;2023-03-19T01:42:32;2.40;99.90
29341;DHT22;16337;59.536;13.468;2023-03-19T01:44:58;2.30;99.90
29341;DHT22;16337;59.536;13.468;2023-03-19T01:47:36;2.30;99.90
29341;DHT22;16337;59.536;13.468;2023-03-19T01:50:03;2.30;99.90
29341;DHT22;16337;59.536;13.468;2023-03-19T01:52:31;2.30;99.90
29341;DHT22;16337;59.536;13.468;2023-03-19T01:55:00;2.30;99.90
29341;DHT22;16337;59.536;13.468;2023-03-19T01:57:28;2.30;99.90
29341;DHT22;16337;59.536;13.468;2023-03-19T01:59:56;2.20;99.90
29341;DHT22;16337;59.536;13.468;2023-03-19T02:02:28;2.20;99.90
29341;DHT22;16337;59.536;13.468;2023-03-19T02:05:15;2.20;99.90
29341;DHT22;16337;59.536;13.468;2023-03-19T02:07:51;2.20;99.90
29341;DHT22;16337;59.536;13.468;2023-03-19T02:10:18;2.20;99.90
29341;DHT22;16337;59.536;13.468;2023-03-19T02:12:45;2.10;99.90
29341;DHT22;16337;59.536;13.468;2023-03-19T02:15:11;2.10;99.90
29341;DHT22;16337;59.536;13.468;2023-03-19T02:17:38;2.10;99.90
29341;DHT22;16337;59.536;13.468;2023-03-19T02:28:18;2.00;99.90
29341;DHT22;16337;59.536;13.468;2023-03-19T02:30:44;2.00;99.90
29341;DHT22;16337;59.536;13.468;2023-03-19T02:33:15;2.00;99.90
29341;DHT22;16337;59.536;13.468;2023-03-19T02:35:44;2.00;99.90
29341;DHT22;16337;59.536;13.468;2023-03-19T02:38:11;2.00;99.90
29341;DHT22;16337;59.536;13.468;2023-03-19T02:40:55;2.00;99.90
29341;DHT22;16337;59.536;13.468;2023-03-19T02:43:22;1.90;99.90
29341;DHT22;16337;59.536;13.468;2023-03-19T02:45:48;1.90;99.90
29341;DHT22;16337;59.536;13.468;2023-03-19T02:48:14;1.90;99.90
29341;DHT22;16337;59.536;13.468;2023-03-19T02:50:40;1.90;99.90
29341;DHT22;16337;59.536;13.468;2023-03-19T02:53:06;1.90;99.90
29341;DHT22;16337;59.536;13.468;2023-03-19T02:55:32;1.90;99.90
29341;DHT22;16337;59.536;13.468;2023-03-19T02:57:58;1.80;99.90
29341;DHT22;16337;59.536;13.468;2023-03-19T03:00:24;1.80;99.90
29341;DHT22;16337;59.536;13.468;2023-03-19T03:02:50;1.80;99.90
29341;DHT22;16337;59.536;13.468;2023-03-19T03:05:15;1.80;99.90
29341;DHT22;16337;59.536;13.468;2023-03-19T03:07:41;1.70;99.90
29341;DHT22;16337;59.536;13.468;2023-03-19T03:10:10;1.70;99.90
29341;DHT22;16337;59.536;13.468;2023-03-19T03:12:38;1.70;99.90
29341;DHT22;16337;59.536;13.468;2023-03-19T03:15:06;1.60;99.90
29341;DHT22;16337;59.536;13.468;2023-03-19T03:17:36;1.60;99.90
29341;DHT22;16337;59.536;13.468;2023-03-19T03:20:03;1.60;99.90
29341;DHT22;16337;59.536;13.468;2023-03-19T03:22:29;1.60;99.90
29341;DHT22;16337;59.536;13.468;2023-03-19T03:24:55;1.60;99.90
29341;DHT22;16337;59.536;13.468;2023-03-19T03:27:21;1.60;99.90
29341;DHT22;16337;59.536;13.468;2023-03-19T03:29:47;1.60;99.90
29341;DHT22;16337;59.536;13.468;2023-03-19T03:32:13;1.60;99.90
29341;DHT22;16337;59.536;13.468;2023-03-19T03:34:39;1.60;99.90
29341;DHT22;16337;59.536;13.468;2023-03-19T03:37:05;1.60;99.90
29341;DHT22;16337;59.536;13.468;2023-03-19T03:39:31;1.60;99.90
29341;DHT22;16337;59.536;13.468;2023-03-19T03:41:57;1.50;99.90
29341;DHT22;16337;59.536;13.468;2023-03-19T03:44:23;1.60;99.90
29341;DHT22;16337;59.536;13.468;2023-03-19T03:46:51;1.50;99.90
29341;DHT22;16337;59.536;13.468;2023-03-19T03:49:17;1.50;99.90
29341;DHT22;16337;59.536;13.468;2023-03-19T03:51:43;1.40;99.90
29341;DHT22;16337;59.536;13.468;2023-03-19T03:54:09;1.40;99.90
29341;DHT22;16337;59.536;13.468;2023-03-19T03:56:34;1.40;99.90
29341;DHT22;16337;59.536;13.468;2023-03-19T03:59:01;1.40;99.90
29341;DHT22;16337;59.536;13.468;2023-03-19T04:01:26;1.30;99.90
29341;DHT22;16337;59.536;13.468;2023-03-19T04:03:52;1.30;99.90
29341;DHT22;16337;59.536;13.468;2023-03-19T04:06:21;1.30;99.90
29341;DHT22;16337;59.536;13.468;2023-03-19T04:08:47;1.30;99.90
29341;DHT22;16337;59.536;13.468;2023-03-19T04:11:13;1.30;99.90
29341;DHT22;16337;59.536;13.468;2023-03-19T04:13:39;1.30;99.90
29341;DHT22;16337;59.536;13.468;2023-03-19T04:16:07;1.30;99.90
29341;DHT22;16337;59.536;13.468;2023-03-19T04:18:34;1.30;99.90
29341;DHT22;16337;59.536;13.468;2023-03-19T04:21:01;1.30;99.90
29341;DHT22;16337;59.536;13.468;2023-03-19T04:23:28;1.30;99.90
29341;DHT22;16337;59.536;13.468;2023-03-19T04:25:58;1.30;99.90
29341;DHT22;16337;59.536;13.468;2023-03-19T04:28:25;1.30;99.90
29341;DHT22;16337;59.536;13.468;2023-03-19T04:30:50;1.40;99.90
29341;DHT22;16337;59.536;13.468;2023-03-19T04:33:19;1.30;99.90
29341;DHT22;16337;59.536;13.468;2023-03-19T04:35:45;1.30;99.90
29341;DHT22;16337;59.536;13.468;2023-03-19T04:38:11;1.30;99.90
29341;DHT22;16337;59.536;13.468;2023-03-19T04:40:36;1.30;99.90
29341;DHT22;16337;59.536;13.468;2023-03-19T04:43:02;1.30;99.90
29341;DHT22;16337;59.536;13.468;2023-03-19T04:45:28;1.30;99.90
29341;DHT22;16337;59.536;13.468;2023-03-19T04:47:53;1.30;99.90
29341;DHT22;16337;59.536;13.468;2023-03-19T04:50:20;1.30;99.90
29341;DHT22;16337;59.536;13.468;2023-03-19T04:52:46;1.30;99.90
29341;DHT22;16337;59.536;13.468;2023-03-19T04:55:12;1.40;99.90
29341;DHT22;16337;59.536;13.468;2023-03-19T04:57:38;1.30;99.90
29341;DHT22;16337;59.536;13.468;2023-03-19T05:00:04;1.30;99.90
29341;DHT22;16337;59.536;13.468;2023-03-19T05:02:31;1.30;99.90
29341;DHT22;16337;59.536;13.468;2023-03-19T05:04:57;1.40;99.90
29341;DHT22;16337;59.536;13.468;2023-03-19T05:07:22;1.40;99.90
29341;DHT22;16337;59.536;13.468;2023-03-19T05:09:48;1.40;99.90
29341;DHT22;16337;59.536;13.468;2023-03-19T05:12:14;1.40;99.90
29341;DHT22;16337;59.536;13.468;2023-03-19T05:14:40;1.40;99.90
29341;DHT22;16337;59.536;13.468;2023-03-19T05:17:06;1.30;99.90
29341;DHT22;16337;59.536;13.468;2023-03-19T05:19:32;1.30;99.90
29341;DHT22;16337;59.536;13.468;2023-03-19T05:21:58;1.30;99.90
29341;DHT22;16337;59.536;13.468;2023-03-19T05:24:24;1.30;99.90
29341;DHT22;16337;59.536;13.468;2023-03-19T05:26:50;1.30;99.90
29341;DHT22;16337;59.536;13.468;2023-03-19T05:29:16;1.30;99.90
29341;DHT22;16337;59.536;13.468;2023-03-19T05:31:42;1.40;99.90
29341;DHT22;16337;59.536;13.468;2023-03-19T05:34:08;1.30;99.90
29341;DHT22;16337;59.536;13.468;2023-03-19T05:36:33;1.40;99.90
29341;DHT22;16337;59.536;13.468;2023-03-19T05:39:00;1.40;99.90
29341;DHT22;16337;59.536;13.468;2023-03-19T05:41:26;1.40;99.90
29341;DHT22;16337;59.536;13.468;2023-03-19T05:43:52;1.40;99.90
29341;DHT22;16337;59.536;13.468;2023-03-19T05:46:18;1.40;99.90
29341;DHT22;16337;59.536;13.468;2023-03-19T05:48:44;1.40;99.90
29341;DHT22;16337;59.536;13.468;2023-03-19T05:51:09;1.40;99.90
29341;DHT22;16337;59.536;13.468;2023-03-19T05:53:36;1.40;99.90
29341;DHT22;16337;59.536;13.468;2023-03-19T05:56:02;1.40;99.90
29341;DHT22;16337;59.536;13.468;2023-03-19T05:58:28;1.50;99.90
29341;DHT22;16337;59.536;13.468;2023-03-19T06:00:54;1.50;99.90
29341;DHT22;16337;59.536;13.468;2023-03-19T06:03:21;1.50;99.90
29341;DHT22;16337;59.536;13.468;2023-03-19T06:05:50;1.50;99.90
29341;DHT22;16337;59.536;13.468;2023-03-19T06:08:16;1.50;99.90
29341;DHT22;16337;59.536;13.468;2023-03-19T06:10:42;1.60;99.90
29341;DHT22;16337;59.536;13.468;2023-03-19T06:13:08;1.60;99.90
29341;DHT22;16337;59.536;13.468;2023-03-19T06:15:34;1.60;99.90
29341;DHT22;16337;59.536;13.468;2023-03-19T06:18:00;1.60;99.90
29341;DHT22;16337;59.536;13.468;2023-03-19T06:20:26;1.60;99.90
29341;DHT22;16337;59.536;13.468;2023-03-19T06:22:52;1.60;99.90
29341;DHT22;16337;59.536;13.468;2023-03-19T06:25:18;1.60;99.90
29341;DHT22;16337;59.536;13.468;2023-03-19T06:27:43;1.60;99.90
29341;DHT22;16337;59.536;13.468;2023-03-19T06:30:09;1.60;99.90
29341;DHT22;16337;59.536;13.468;2023-03-19T06:32:35;1.70;99.90
29341;DHT22;16337;59.536;13.468;2023-03-19T06:35:01;1.70;99.90
29341;DHT22;16337;59.536;13.468;2023-03-19T06:37:27;1.80;99.90
29341;DHT22;16337;59.536;13.468;2023-03-19T06:39:53;1.90;99.90
29341;DHT22;16337;59.536;13.468;2023-03-19T06:42:22;1.90;99.90
29341;DHT22;16337;59.536;13.468;2023-03-19T06:44:48;1.90;99.90
29341;DHT22;16337;59.536;13.468;2023-03-19T06:47:14;2.00;99.90
29341;DHT22;16337;59.536;13.468;2023-03-19T06:49:40;2.00;99.90
29341;DHT22;16337;59.536;13.468;2023-03-19T06:52:06;2.00;99.90
29341;DHT22;16337;59.536;13.468;2023-03-19T06:54:32;2.10;99.90
29341;DHT22;16337;59.536;13.468;2023-03-19T06:56:58;2.10;99.90
29341;DHT22;16337;59.536;13.468;2023-03-19T06:59:24;2.10;99.90
29341;DHT22;16337;59.536;13.468;2023-03-19T07:01:51;2.20;99.90
29341;DHT22;16337;59.536;13.468;2023-03-19T07:04:17;2.20;99.90
29341;DHT22;16337;59.536;13.468;2023-03-19T07:06:43;2.20;99.90
29341;DHT22;16337;59.536;13.468;2023-03-19T07:09:09;2.20;99.90
29341;DHT22;16337;59.536;13.468;2023-03-19T07:11:36;2.30;99.90
29341;DHT22;16337;59.536;13.468;2023-03-19T07:14:02;2.30;99.90
29341;DHT22;16337;59.536;13.468;2023-03-19T07:16:28;2.30;99.90
29341;DHT22;16337;59.536;13.468;2023-03-19T07:18:53;2.30;99.90
29341;DHT22;16337;59.536;13.468;2023-03-19T07:21:20;2.30;99.90
29341;DHT22;16337;59.536;13.468;2023-03-19T07:23:46;2.30;99.90
29341;DHT22;16337;59.536;13.468;2023-03-19T07:26:12;2.40;99.90
29341;DHT22;16337;59.536;13.468;2023-03-19T07:28:38;2.40;99.90
29341;DHT22;16337;59.536;13.468;2023-03-19T07:31:04;2.40;99.90
29341;DHT22;16337;59.536;13.468;2023-03-19T07:33:31;2.40;99.90
29341;DHT22;16337;59.536;13.468;2023-03-19T07:35:57;2.40;99.90
29341;DHT22;16337;59.536;13.468;2023-03-19T07:38:22;2.40;99.90
29341;DHT22;16337;59.536;13.468;2023-03-19T07:40:49;2.50;99.90
29341;DHT22;16337;59.536;13.468;2023-03-19T07:43:15;2.50;99.90
29341;DHT22;16337;59.536;13.468;2023-03-19T07:45:41;2.50;99.90
29341;DHT22;16337;59.536;13.468;2023-03-19T07:48:07;2.60;99.90
29341;DHT22;16337;59.536;13.468;2023-03-19T07:50:33;2.70;99.90
29341;DHT22;16337;59.536;13.468;2023-03-19T07:52:59;2.70;99.90
29341;DHT22;16337;59.536;13.468;2023-03-19T07:55:25;2.80;99.90
29341;DHT22;16337;59.536;13.468;2023-03-19T07:57:51;2.90;99.90
29341;DHT22;16337;59.536;13.468;2023-03-19T08:00:17;3.00;99.90
29341;DHT22;16337;59.536;13.468;2023-03-19T08:02:43;3.00;99.90
29341;DHT22;16337;59.536;13.468;2023-03-19T08:05:09;3.10;99.90
29341;DHT22;16337;59.536;13.468;2023-03-19T08:07:35;3.10;99.90
29341;DHT22;16337;59.536;13.468;2023-03-19T08:10:03;3.00;99.90
29341;DHT22;16337;59.536;13.468;2023-03-19T08:12:29;3.00;99.90
29341;DHT22;16337;59.536;13.468;2023-03-19T08:14:56;2.90;99.90
29341;DHT22;16337;59.536;13.468;2023-03-19T08:17:22;2.90;99.90
29341;DHT22;16337;59.536;13.468;2023-03-19T08:19:47;2.80;99.90
29341;DHT22;16337;59.536;13.468;2023-03-19T08:22:13;2.80;99.90
29341;DHT22;16337;59.536;13.468;2023-03-19T08:24:39;2.80;99.90
29341;DHT22;16337;59.536;13.468;2023-03-19T08:27:04;2.90;99.90
29341;DHT22;16337;59.536;13.468;2023-03-19T08:29:31;3.00;99.90
29341;DHT22;16337;59.536;13.468;2023-03-19T08:31:57;3.20;99.90
29341;DHT22;16337;59.536;13.468;2023-03-19T08:34:23;3.30;99.90
29341;DHT22;16337;59.536;13.468;2023-03-19T08:36:49;3.30;99.90
29341;DHT22;16337;59.536;13.468;2023-03-19T08:39:15;3.40;99.90
29341;DHT22;16337;59.536;13.468;2023-03-19T08:41:41;3.50;99.90
29341;DHT22;16337;59.536;13.468;2023-03-19T08:44:07;3.50;99.90
29341;DHT22;16337;59.536;13.468;2023-03-19T08:46:33;3.50;99.90
29341;DHT22;16337;59.536;13.468;2023-03-19T08:48:59;3.50;99.90
29341;DHT22;16337;59.536;13.468;2023-03-19T08:51:25;3.50;99.90
29341;DHT22;16337;59.536;13.468;2023-03-19T08:53:52;3.60;99.90
29341;DHT22;16337;59.536;13.468;2023-03-19T08:56:19;3.70;99.90
29341;DHT22;16337;59.536;13.468;2023-03-19T08:58:45;3.80;99.90
29341;DHT22;16337;59.536;13.468;2023-03-19T09:01:12;4.00;99.90
29341;DHT22;16337;59.536;13.468;2023-03-19T09:03:42;4.10;99.90
29341;DHT22;16337;59.536;13.468;2023-03-19T09:06:13;4.30;99.90
29341;DHT22;16337;59.536;13.468;2023-03-19T09:08:39;4.30;99.90
29341;DHT22;16337;59.536;13.468;2023-03-19T09:11:08;4.40;99.90
29341;DHT22;16337;59.536;13.468;2023-03-19T09:13:37;4.40;99.90
29341;DHT22;16337;59.536;13.468;2023-03-19T09:16:04;4.50;99.90
29341;DHT22;16337;59.536;13.468;2023-03-19T09:18:30;4.50;99.90
29341;DHT22;16337;59.536;13.468;2023-03-19T09:20:55;4.60;99.90
29341;DHT22;16337;59.536;13.468;2023-03-19T09:23:21;4.70;99.90
29341;DHT22;16337;59.536;13.468;2023-03-19T09:25:48;4.70;99.90
29341;DHT22;16337;59.536;13.468;2023-03-19T09:28:16;4.70;99.90
29341;DHT22;16337;59.536;13.468;2023-03-19T09:30:45;4.80;99.90
29341;DHT22;16337;59.536;13.468;2023-03-19T09:33:13;4.70;99.90
29341;DHT22;16337;59.536;13.468;2023-03-19T09:35:39;4.80;99.90
29341;DHT22;16337;59.536;13.468;2023-03-19T09:38:05;4.80;99.90
29341;DHT22;16337;59.536;13.468;2023-03-19T09:40:42;4.80;99.90
29341;DHT22;16337;59.536;13.468;2023-03-19T09:45:46;4.90;99.90
29341;DHT22;16337;59.536;13.468;2023-03-19T09:48:16;5.00;99.90
29341;DHT22;16337;59.536;13.468;2023-03-19T09:50:45;5.10;99.90
29341;DHT22;16337;59.536;13.468;2023-03-19T09:53:43;5.10;99.90
29341;DHT22;16337;59.536;13.468;2023-03-19T09:56:13;5.20;99.90
29341;DHT22;16337;59.536;13.468;2023-03-19T09:58:39;5.40;99.90
29341;DHT22;16337;59.536;13.468;2023-03-19T10:01:06;5.50;99.90
29341;DHT22;16337;59.536;13.468;2023-03-19T10:06:28;5.70;99.90
29341;DHT22;16337;59.536;13.468;2023-03-19T10:17:40;5.90;99.90
29341;DHT22;16337;59.536;13.468;2023-03-19T10:20:18;5.90;99.90
29341;DHT22;16337;59.536;13.468;2023-03-19T10:22:58;6.00;99.90
29341;DHT22;16337;59.536;13.468;2023-03-19T10:25:27;6.00;99.90
29341;DHT22;16337;59.536;13.468;2023-03-19T10:27:59;6.10;99.90
29341;DHT22;16337;59.536;13.468;2023-03-19T10:30:27;6.10;99.90
29341;DHT22;16337;59.536;13.468;2023-03-19T10:33:16;6.20;99.90
29341;DHT22;16337;59.536;13.468;2023-03-19T10:35:44;6.20;99.90
29341;DHT22;16337;59.536;13.468;2023-03-19T10:38:21;6.30;99.90
29341;DHT22;16337;59.536;13.468;2023-03-19T10:43:31;6.40;99.90
29341;DHT22;16337;59.536;13.468;2023-03-19T10:45:59;6.50;99.90
29341;DHT22;16337;59.536;13.468;2023-03-19T10:48:25;6.50;99.90
29341;DHT22;16337;59.536;13.468;2023-03-19T10:50:52;6.50;99.90
29341;DHT22;16337;59.536;13.468;2023-03-19T10:53:32;6.60;99.90
29341;DHT22;16337;59.536;13.468;2023-03-19T10:56:19;6.70;99.90
29341;DHT22;16337;59.536;13.468;2023-03-19T11:01:57;6.60;99.90
29341;DHT22;16337;59.536;13.468;2023-03-19T11:04:24;6.80;99.90
29341;DHT22;16337;59.536;13.468;2023-03-19T11:06:52;6.80;99.90
29341;DHT22;16337;59.536;13.468;2023-03-19T11:09:37;6.90;99.90
29341;DHT22;16337;59.536;13.468;2023-03-19T11:14:42;6.80;99.90
29341;DHT22;16337;59.536;13.468;2023-03-19T11:17:21;6.90;99.90
29341;DHT22;16337;59.536;13.468;2023-03-19T11:19:56;6.80;99.90
29341;DHT22;16337;59.536;13.468;2023-03-19T11:22:24;6.70;99.90
29341;DHT22;16337;59.536;13.468;2023-03-19T11:24:55;6.60;99.90
29341;DHT22;16337;59.536;13.468;2023-03-19T11:27:32;6.60;99.90
29341;DHT22;16337;59.536;13.468;2023-03-19T11:30:00;6.60;99.90
29341;DHT22;16337;59.536;13.468;2023-03-19T11:32:39;6.60;99.90
29341;DHT22;16337;59.536;13.468;2023-03-19T11:35:14;6.60;99.90
29341;DHT22;16337;59.536;13.468;2023-03-19T11:38:01;6.70;99.90
29341;DHT22;16337;59.536;13.468;2023-03-19T11:40:42;6.80;99.90
29341;DHT22;16337;59.536;13.468;2023-03-19T11:57:21;6.90;99.90
29341;DHT22;16337;59.536;13.468;2023-03-19T12:05:48;6.80;99.90
29341;DHT22;16337;59.536;13.468;2023-03-19T12:16:44;6.60;99.90
29341;DHT22;16337;59.536;13.468;2023-03-19T12:33:51;6.60;99.90
29341;DHT22;16337;59.536;13.468;2023-03-19T12:36:25;6.50;99.90
29341;DHT22;16337;59.536;13.468;2023-03-19T12:39:01;6.40;99.90
29341;DHT22;16337;59.536;13.468;2023-03-19T12:41:30;6.50;99.90
29341;DHT22;16337;59.536;13.468;2023-03-19T12:46:31;6.30;99.90
29341;DHT22;16337;59.536;13.468;2023-03-19T12:49:20;6.30;99.90
29341;DHT22;16337;59.536;13.468;2023-03-19T12:51:53;6.40;99.90
29341;DHT22;16337;59.536;13.468;2023-03-19T12:54:26;6.40;99.90
29341;DHT22;16337;59.536;13.468;2023-03-19T12:57:12;6.40;99.90
29341;DHT22;16337;59.536;13.468;2023-03-19T12:59:42;6.40;99.90
29341;DHT22;16337;59.536;13.468;2023-03-19T13:02:46;6.40;99.90
29341;DHT22;16337;59.536;13.468;2023-03-19T13:07:59;6.40;99.90
29341;DHT22;16337;59.536;13.468;2023-03-19T13:10:29;6.40;99.90
29341;DHT22;16337;59.536;13.468;2023-03-19T13:12:56;6.30;99.90
29341;DHT22;16337;59.536;13.468;2023-03-19T13:18:03;6.20;99.90
29341;DHT22;16337;59.536;13.468;2023-03-19T13:23:13;6.20;99.90
29341;DHT22;16337;59.536;13.468;2023-03-19T13:25:44;6.20;99.90
29341;DHT22;16337;59.536;13.468;2023-03-19T13:28:29;6.20;99.90
29341;DHT22;16337;59.536;13.468;2023-03-19T13:33:28;6.40;99.90
29341;DHT22;16337;59.536;13.468;2023-03-19T13:36:00;6.30;99.90
29341;DHT22;16337;59.536;13.468;2023-03-19T13:41:47;6.30;99.90
29341;DHT22;16337;59.536;13.468;2023-03-19T13:44:32;6.30;99.90
29341;DHT22;16337;59.536;13.468;2023-03-19T13:52:48;6.00;99.90
29341;DHT22;16337;59.536;13.468;2023-03-19T14:01:02;5.90;99.90
29341;DHT22;16337;59.536;13.468;2023-03-19T14:03:30;5.80;99.90
29341;DHT22;16337;59.536;13.468;2023-03-19T14:05:57;5.80;99.90
29341;DHT22;16337;59.536;13.468;2023-03-19T14:08:46;5.80;99.90
29341;DHT22;16337;59.536;13.468;2023-03-19T14:11:35;5.70;99.90
29341;DHT22;16337;59.536;13.468;2023-03-19T14:14:04;5.70;99.90
29341;DHT22;16337;59.536;13.468;2023-03-19T14:16:34;5.70;99.90
29341;DHT22;16337;59.536;13.468;2023-03-19T14:19:08;5.70;99.90
29341;DHT22;16337;59.536;13.468;2023-03-19T14:27:17;5.80;99.90
29341;DHT22;16337;59.536;13.468;2023-03-19T14:29:46;5.80;99.90
29341;DHT22;16337;59.536;13.468;2023-03-19T14:32:16;5.80;99.90
29341;DHT22;16337;59.536;13.468;2023-03-19T14:34:44;5.80;99.90
29341;DHT22;16337;59.536;13.468;2023-03-19T14:37:38;5.80;99.90
29341;DHT22;16337;59.536;13.468;2023-03-19T14:48:10;5.50;99.90
29341;DHT22;16337;59.536;13.468;2023-03-19T14:56:29;5.60;99.90
29341;DHT22;16337;59.536;13.468;2023-03-19T14:58:57;5.50;99.90
29341;DHT22;16337;59.536;13.468;2023-03-19T15:01:26;5.50;99.90
29341;DHT22;16337;59.536;13.468;2023-03-19T15:04:03;5.50;99.90
29341;DHT22;16337;59.536;13.468;2023-03-19T15:06:39;5.50;99.90
29341;DHT22;16337;59.536;13.468;2023-03-19T15:09:28;5.50;99.90
29341;DHT22;16337;59.536;13.468;2023-03-19T15:12:28;5.50;99.90
29341;DHT22;16337;59.536;13.468;2023-03-19T15:18:11;5.50;99.90
29341;DHT22;16337;59.536;13.468;2023-03-19T15:20:50;5.50;99.90
29341;DHT22;16337;59.536;13.468;2023-03-19T15:23:20;5.50;99.90
29341;DHT22;16337;59.536;13.468;2023-03-19T15:25:51;5.50;99.90
29341;DHT22;16337;59.536;13.468;2023-03-19T15:28:22;5.50;99.90
29341;DHT22;16337;59.536;13.468;2023-03-19T15:31:03;5.40;99.90
29341;DHT22;16337;59.536;13.468;2023-03-19T15:33:37;5.40;99.90
29341;DHT22;16337;59.536;13.468;2023-03-19T15:36:23;5.40;99.90
29341;DHT22;16337;59.536;13.468;2023-03-19T15:41:26;5.30;99.90
29341;DHT22;16337;59.536;13.468;2023-03-19T15:43:53;5.30;99.90
29341;DHT22;16337;59.536;13.468;2023-03-19T15:46:26;5.30;99.90
29341;DHT22;16337;59.536;13.468;2023-03-19T15:49:08;5.20;99.90
29341;DHT22;16337;59.536;13.468;2023-03-19T15:51:36;5.20;99.90
29341;DHT22;16337;59.536;13.468;2023-03-19T15:54:03;5.10;99.90
29341;DHT22;16337;59.536;13.468;2023-03-19T15:56:29;5.10;99.90
29341;DHT22;16337;59.536;13.468;2023-03-19T15:58:57;5.10;99.90
29341;DHT22;16337;59.536;13.468;2023-03-19T16:01:25;5.10;99.90
29341;DHT22;16337;59.536;13.468;2023-03-19T16:03:58;5.00;99.90
29341;DHT22;16337;59.536;13.468;2023-03-19T16:06:29;5.00;99.90
29341;DHT22;16337;59.536;13.468;2023-03-19T16:09:51;5.00;99.90
29341;DHT22;16337;59.536;13.468;2023-03-19T16:11:53;5.00;99.90
29341;DHT22;16337;59.536;13.468;2023-03-19T16:14:23;5.00;99.90
29341;DHT22;16337;59.536;13.468;2023-03-19T16:16:50;5.00;99.90
29341;DHT22;16337;59.536;13.468;2023-03-19T16:21:57;4.90;99.90
29341;DHT22;16337;59.536;13.468;2023-03-19T16:24:30;4.90;99.90
29341;DHT22;16337;59.536;13.468;2023-03-19T16:27:10;4.90;99.90
29341;DHT22;16337;59.536;13.468;2023-03-19T16:32:27;4.90;99.90
29341;DHT22;16337;59.536;13.468;2023-03-19T16:42:48;4.80;99.90
29341;DHT22;16337;59.536;13.468;2023-03-19T16:45:28;4.80;99.90
29341;DHT22;16337;59.536;13.468;2023-03-19T16:47:56;4.80;99.90
29341;DHT22;16337;59.536;13.468;2023-03-19T16:50:29;4.80;99.90
29341;DHT22;16337;59.536;13.468;2023-03-19T16:52:56;4.80;99.90
29341;DHT22;16337;59.536;13.468;2023-03-19T17:00:59;4.70;99.90
29341;DHT22;16337;59.536;13.468;2023-03-19T17:03:25;4.70;99.90
29341;DHT22;16337;59.536;13.468;2023-03-19T17:05:55;4.70;99.90
29341;DHT22;16337;59.536;13.468;2023-03-19T17:08:20;4.70;99.90
29341;DHT22;16337;59.536;13.468;2023-03-19T17:10:49;4.60;99.90
29341;DHT22;16337;59.536;13.468;2023-03-19T17:13:24;4.60;99.90
29341;DHT22;16337;59.536;13.468;2023-03-19T17:15:54;4.60;99.90
29341;DHT22;16337;59.536;13.468;2023-03-19T17:18:24;4.50;99.90
29341;DHT22;16337;59.536;13.468;2023-03-19T17:21:11;4.60;99.90
29341;DHT22;16337;59.536;13.468;2023-03-19T17:23:38;4.60;99.90
29341;DHT22;16337;59.536;13.468;2023-03-19T17:26:19;4.60;99.90
29341;DHT22;16337;59.536;13.468;2023-03-19T17:28:46;4.60;99.90
29341;DHT22;16337;59.536;13.468;2023-03-19T17:31:25;4.50;99.90
29341;DHT22;16337;59.536;13.468;2023-03-19T17:36:29;4.40;99.90
29341;DHT22;16337;59.536;13.468;2023-03-19T17:38:55;4.40;99.90
29341;DHT22;16337;59.536;13.468;2023-03-19T17:41:21;4.40;99.90
29341;DHT22;16337;59.536;13.468;2023-03-19T17:43:47;4.30;99.90
29341;DHT22;16337;59.536;13.468;2023-03-19T17:46:24;4.30;99.90
29341;DHT22;16337;59.536;13.468;2023-03-19T17:48:51;4.40;99.90
29341;DHT22;16337;59.536;13.468;2023-03-19T17:51:23;4.40;99.90
29341;DHT22;16337;59.536;13.468;2023-03-19T17:53:51;4.40;99.90
29341;DHT22;16337;59.536;13.468;2023-03-19T17:56:20;4.30;99.90
29341;DHT22;16337;59.536;13.468;2023-03-19T17:58:49;4.20;99.90
29341;DHT22;16337;59.536;13.468;2023-03-19T18:01:26;4.20;99.90
29341;DHT22;16337;59.536;13.468;2023-03-19T18:03:53;4.20;99.90
29341;DHT22;16337;59.536;13.468;2023-03-19T18:06:41;4.20;99.90
29341;DHT22;16337;59.536;13.468;2023-03-19T18:09:33;4.20;99.90
29341;DHT22;16337;59.536;13.468;2023-03-19T18:11:59;4.20;99.90